עמוד ראשי
METAR-TAF:

METAR-TAF

שדות תעופה :

פוארטו מלדונדו, פרו

קו רוחב: 12-38S, קו אורך: 069-12W, גובה: 265מטר

תצפית מזג אוויר נוכחית

הדו"ח נערך לפני 1 שעות ו 6דקות, בשעה 23:00 UTC
רוח 1קשר עם כיוונים משתנים
טמפרטורת 22 צלסיוס
לחות 83%
לחץ 1013 hPa
ראות 10 קילומטר או יותר
עננים בינוניים בגובה 4000רגל

METAR: SPTU 202300Z VRB01KT 9999 BKN040 22/19 Q1013 RMK BIRD HAZARD RWY 01/19 PP000

זמן: 19:06 (00:06 UTC)

תחזית

הדו"ח נערך לפני 7 שעות ו 6דקות, בשעה 17:00 UTC
תחזית בתוקף מ 20 ב 18 UTC עד 21 ב 18 UTC
רוח 5קשר מכיוון דרום-מזרח
ראות 10 קילומטר או יותר
עננים פזורים בגובה 4000רגל

TAF: SPTU 201700Z 2018/2118 14005KT 9999 SCT040 TX26/2019Z TN18/2111Z

תצפיות ותחזיות מזג אוויר לגבי יותר מ- 4,000 שדות תעופה ברחבי העולם. דוחות METAR ו- TAF.

התחנות הזמינות מסומנות בנקודות צהובות ואדומות על גבי המפה.

העבר את העכבר לנקודה הצבעונית על מנת לראות את שם התחנה.

לאחר מכן, לחץ כדי לראות את תוכן ואת תחזיות מזג האוויר.

כדי לשנות את המפה: לחץ על הכפתורים הירוקים עם הפלוס השחור כדי להתקרב; על הכפתור הירוק עם המקף כדי להתרחק; או בחיצים הירוקים למפות סמוכות.


METAR-TAF: